createdAt,value
2023-04-18T00:01:50.464Z,9.63
2023-04-18T00:04:19.572Z,9.60
2023-04-18T00:06:50.057Z,9.58
2023-04-18T00:09:20.927Z,9.79
2023-04-18T00:11:49.168Z,9.50
2023-04-18T00:14:17.236Z,9.86
2023-04-18T00:16:46.273Z,10.02
2023-04-18T00:19:16.503Z,10.17
2023-04-18T00:21:45.074Z,10.32
2023-04-18T00:24:14.780Z,10.55
2023-04-18T00:26:42.917Z,10.31
2023-04-18T00:29:11.007Z,10.35
2023-04-18T00:31:39.147Z,10.12
2023-04-18T00:34:07.779Z,10.18
2023-04-18T00:36:35.739Z,10.04
2023-04-18T00:39:03.749Z,10.41
2023-04-18T00:41:33.398Z,10.37
2023-04-18T00:44:01.579Z,10.35
2023-04-18T00:46:29.881Z,10.55
2023-04-18T00:48:58.147Z,10.68
2023-04-18T00:51:28.047Z,10.38
2023-04-18T00:53:56.478Z,10.46
2023-04-18T00:56:26.116Z,10.53
2023-04-18T00:58:55.692Z,10.50
2023-04-18T01:01:24.110Z,10.07
2023-04-18T01:03:52.429Z,9.94
2023-04-18T01:06:20.868Z,10.14
2023-04-18T01:08:49.574Z,10.10
2023-04-18T01:11:19.064Z,9.94
2023-04-18T01:14:02.107Z,9.97
2023-04-18T01:16:33.851Z,9.60
2023-04-18T01:19:02.350Z,9.83
2023-04-18T01:21:31.439Z,9.87
2023-04-18T01:24:01.842Z,10.02
2023-04-18T01:26:31.746Z,9.54
2023-04-18T01:28:59.619Z,9.67
2023-04-18T01:31:27.891Z,9.36
2023-04-18T01:33:56.093Z,9.98
2023-04-18T01:36:24.407Z,9.65
2023-04-18T01:38:52.556Z,9.49
2023-04-18T01:41:20.659Z,9.63
2023-04-18T01:43:51.277Z,9.34
2023-04-18T01:46:19.660Z,9.22
2023-04-18T01:48:50.076Z,9.24
2023-04-18T01:51:21.769Z,9.26
2023-04-18T01:53:50.137Z,9.00
2023-04-18T01:56:18.376Z,9.52
2023-04-18T01:58:46.672Z,9.22
2023-04-18T02:01:16.261Z,9.16
2023-04-18T02:03:45.037Z,9.09
2023-04-18T02:06:14.663Z,9.04
2023-04-18T02:08:42.567Z,9.13
2023-04-18T02:11:10.468Z,9.02
2023-04-18T02:13:38.457Z,8.95
2023-04-18T02:16:13.739Z,8.93
2023-04-18T02:18:52.926Z,8.65
2023-04-18T02:21:22.059Z,8.94
2023-04-18T02:23:53.569Z,8.64
2023-04-18T02:26:23.165Z,8.83
2023-04-18T02:28:51.558Z,9.06
2023-04-18T02:31:19.662Z,8.86
2023-04-18T02:33:48.137Z,9.11
2023-04-18T02:36:18.652Z,9.00
2023-04-18T02:38:46.702Z,9.01
2023-04-18T02:41:17.407Z,9.00
2023-04-18T02:43:45.978Z,8.92
2023-04-18T02:46:16.642Z,8.99
2023-04-18T02:48:47.942Z,8.91
2023-04-18T02:51:20.070Z,9.03
2023-04-18T02:53:54.861Z,8.68
2023-04-18T02:56:23.863Z,8.64
2023-04-18T02:59:24.356Z,8.66
2023-04-18T03:02:24.716Z,8.62
2023-04-18T03:04:57.585Z,8.67
2023-04-18T03:07:27.074Z,8.55
2023-04-18T03:09:55.208Z,8.65
2023-04-18T03:12:27.890Z,8.75
2023-04-18T03:14:56.346Z,8.88
2023-04-18T03:17:24.685Z,8.76
2023-04-18T03:19:53.684Z,8.65
2023-04-18T03:22:22.146Z,8.54
2023-04-18T03:25:02.178Z,8.33
2023-04-18T03:27:43.322Z,8.70
2023-04-18T03:30:15.304Z,8.55
2023-04-18T03:32:46.629Z,8.74
2023-04-18T03:35:14.811Z,8.46
2023-04-18T03:37:43.152Z,8.54
2023-04-18T03:40:13.667Z,8.40
2023-04-18T03:42:42.837Z,8.53
2023-04-18T03:45:12.900Z,8.49
2023-04-18T03:47:41.536Z,8.61
2023-04-18T03:50:10.289Z,8.52
2023-04-18T03:52:40.222Z,8.37
2023-04-18T03:55:09.110Z,8.71
2023-04-18T03:57:39.477Z,8.52
2023-04-18T04:00:12.937Z,8.52
2023-04-18T04:02:44.341Z,8.67
2023-04-18T04:05:19.844Z,8.57
2023-04-18T04:07:48.248Z,8.95
2023-04-18T04:10:16.515Z,8.73
2023-04-18T04:12:46.826Z,8.63
2023-04-18T04:15:15.172Z,8.35
2023-04-18T04:17:51.297Z,8.21
2023-04-18T04:20:24.197Z,8.26
2023-04-18T04:22:58.986Z,8.35
2023-04-18T04:25:28.634Z,8.19
2023-04-18T04:28:02.640Z,8.02
2023-04-18T04:30:34.050Z,8.28
2023-04-18T04:33:03.506Z,8.42
2023-04-18T04:35:32.203Z,8.22
2023-04-18T04:38:01.725Z,8.40
2023-04-18T04:40:39.825Z,7.91
2023-04-18T04:43:15.725Z,8.06
2023-04-18T04:45:51.631Z,7.96
2023-04-18T04:48:24.908Z,7.97
2023-04-18T04:50:55.612Z,8.15
2023-04-18T04:53:24.524Z,8.30
2023-04-18T04:55:53.237Z,8.30
2023-04-18T04:58:22.923Z,8.73
2023-04-18T05:01:18.723Z,8.63
2023-04-18T05:03:47.254Z,8.47
2023-04-18T05:06:20.535Z,8.67
2023-04-18T05:08:48.905Z,8.33
2023-04-18T05:11:17.281Z,8.55
2023-04-18T05:13:46.526Z,8.40
2023-04-18T05:16:15.029Z,8.18
2023-04-18T05:18:43.271Z,8.41
2023-04-18T05:21:11.263Z,8.49
2023-04-18T05:23:39.234Z,8.67
2023-04-18T05:26:07.952Z,8.17
2023-04-18T05:28:35.856Z,8.28
2023-04-18T05:31:05.177Z,8.42
2023-04-18T05:33:33.240Z,8.74
2023-04-18T05:36:02.084Z,8.56
2023-04-18T05:38:30.175Z,8.42
2023-04-18T05:41:00.272Z,8.41
2023-04-18T05:43:29.027Z,8.62
2023-04-18T05:45:58.013Z,8.74
2023-04-18T05:48:27.507Z,8.82
2023-04-18T05:50:55.890Z,8.79
2023-04-18T05:53:24.108Z,8.62
2023-04-18T05:55:52.060Z,9.01
2023-04-18T05:58:19.981Z,9.18
2023-04-18T06:00:48.541Z,9.09
2023-04-18T06:03:16.945Z,8.95
2023-04-18T06:05:46.881Z,8.72
2023-04-18T06:08:14.980Z,8.75
2023-04-18T06:10:43.197Z,8.54
2023-04-18T06:13:11.185Z,8.51
2023-04-18T06:15:39.536Z,8.64
2023-04-18T06:18:07.895Z,8.77
2023-04-18T06:20:36.273Z,8.75
2023-04-18T06:23:05.694Z,8.89
2023-04-18T06:25:33.746Z,8.63
2023-04-18T06:28:01.962Z,8.63
2023-04-18T06:30:30.064Z,8.79
2023-04-18T06:32:58.821Z,8.45
2023-04-18T06:35:26.972Z,8.96
2023-04-18T06:37:55.909Z,8.80
2023-04-18T06:40:25.362Z,8.60
2023-04-18T06:42:53.360Z,8.65
2023-04-18T06:45:21.717Z,8.69
2023-04-18T06:47:51.521Z,8.68
2023-04-18T06:50:20.027Z,8.81
2023-04-18T06:52:48.472Z,8.80
2023-04-18T06:55:18.993Z,8.68
2023-04-18T06:57:48.714Z,8.83
2023-04-18T07:00:17.328Z,9.08
2023-04-18T07:02:45.738Z,9.29
2023-04-18T07:05:15.013Z,9.42
2023-04-18T07:07:46.139Z,9.11
2023-04-18T07:10:14.972Z,9.32
2023-04-18T07:12:45.754Z,9.19
2023-04-18T07:15:17.012Z,9.26
2023-04-18T07:17:45.270Z,9.16
2023-04-18T07:20:14.453Z,8.92
2023-04-18T07:22:42.832Z,9.07
2023-04-18T07:25:10.920Z,9.09
2023-04-18T07:27:39.160Z,9.39
2023-04-18T07:30:08.761Z,9.47
2023-04-18T07:32:41.150Z,9.52
2023-04-18T07:35:10.139Z,9.41
2023-04-18T07:37:38.074Z,9.29
2023-04-18T07:40:08.159Z,9.95
2023-04-18T07:42:36.464Z,9.82
2023-04-18T07:45:05.476Z,9.84
2023-04-18T07:47:34.018Z,9.89
2023-04-18T07:50:04.524Z,9.50
2023-04-18T07:52:32.631Z,9.67
2023-04-18T07:55:00.796Z,9.51
2023-04-18T07:57:28.934Z,10.24
2023-04-18T07:59:57.177Z,10.02
2023-04-18T08:02:26.462Z,10.36
2023-04-18T08:04:56.289Z,10.25
2023-04-18T08:07:30.018Z,10.09
2023-04-18T08:09:58.799Z,10.36
2023-04-18T08:12:27.002Z,10.46
2023-04-18T08:14:55.701Z,10.80
2023-04-18T08:17:24.812Z,11.06
2023-04-18T08:19:52.939Z,10.98
2023-04-18T08:22:20.932Z,11.02
2023-04-18T08:27:25.763Z,11.53
2023-04-18T08:29:53.777Z,11.19
2023-04-18T08:32:22.123Z,11.33
2023-04-18T08:34:51.188Z,11.21
2023-04-18T08:37:20.469Z,11.54
2023-04-18T08:39:49.686Z,11.47
2023-04-18T08:42:21.599Z,11.57
2023-04-18T08:44:51.473Z,11.68
2023-04-18T08:47:21.915Z,11.61
2023-04-18T08:49:52.301Z,11.45
2023-04-18T08:52:24.092Z,11.75
2023-04-18T08:54:52.710Z,11.45
2023-04-18T08:57:26.904Z,11.65
2023-04-18T08:59:56.479Z,11.73
2023-04-18T09:02:39.087Z,12.10
2023-04-18T09:05:13.593Z,12.23
2023-04-18T09:07:42.464Z,11.72
2023-04-18T09:10:13.897Z,11.32
2023-04-18T09:12:49.890Z,12.33
2023-04-18T09:15:22.602Z,12.02
2023-04-18T09:17:54.066Z,12.06
2023-04-18T09:20:37.991Z,11.56
2023-04-18T09:23:10.742Z,11.53
2023-04-18T09:25:46.629Z,11.72
2023-04-18T09:28:28.051Z,11.50
2023-04-18T09:30:57.572Z,12.08
2023-04-18T09:33:29.991Z,11.67
2023-04-18T09:36:01.178Z,11.83
2023-04-18T09:38:44.146Z,11.88
2023-04-18T09:41:13.215Z,12.42
2023-04-18T09:43:42.693Z,12.42
2023-04-18T09:46:10.987Z,12.79
2023-04-18T09:48:39.870Z,12.54
2023-04-18T09:51:11.743Z,12.40
2023-04-18T09:53:41.404Z,12.71
2023-04-18T09:56:13.845Z,13.18
2023-04-18T09:58:48.551Z,13.50
2023-04-18T10:01:17.048Z,12.93
2023-04-18T10:03:48.781Z,13.41
2023-04-18T10:06:18.236Z,13.31
2023-04-18T10:08:46.627Z,13.51
2023-04-18T10:11:15.839Z,13.58
2023-04-18T10:13:49.123Z,13.64
2023-04-18T10:16:18.185Z,13.84
2023-04-18T10:18:46.464Z,13.83
2023-04-18T10:21:15.369Z,13.08
2023-04-18T10:23:43.489Z,13.81
2023-04-18T10:26:12.148Z,13.79
2023-04-18T10:28:54.364Z,13.53
2023-04-18T10:31:23.337Z,13.79
2023-04-18T10:34:03.744Z,14.43
2023-04-18T10:36:33.105Z,14.24
2023-04-18T10:39:22.384Z,14.33
2023-04-18T10:41:51.530Z,14.37
2023-04-18T10:44:24.545Z,14.50
2023-04-18T10:47:24.505Z,13.71
2023-04-18T10:50:06.094Z,13.74
2023-04-18T10:52:35.507Z,13.44
2023-04-18T10:55:16.877Z,13.56
2023-04-18T10:57:46.064Z,13.65
2023-04-18T11:00:18.027Z,13.76
2023-04-18T11:02:51.311Z,14.19
2023-04-18T11:05:25.647Z,14.47
2023-04-18T11:07:56.933Z,13.82
2023-04-18T11:10:26.881Z,14.13
2023-04-18T11:12:56.408Z,14.40
2023-04-18T11:15:29.132Z,14.23
2023-04-18T11:18:02.923Z,13.96
2023-04-18T11:20:43.346Z,13.93
2023-04-18T11:23:25.981Z,14.20
2023-04-18T11:26:03.202Z,13.75
2023-04-18T11:28:48.983Z,14.36
2023-04-18T11:31:41.873Z,13.24
2023-04-18T11:34:11.190Z,13.64
2023-04-18T11:36:39.965Z,13.76
2023-04-18T11:39:08.289Z,13.62
2023-04-18T11:41:36.210Z,13.82
2023-04-18T11:44:07.403Z,13.86
2023-04-18T11:46:40.980Z,13.62
2023-04-18T11:49:09.462Z,13.65
2023-04-18T11:51:38.584Z,13.57
2023-04-18T11:54:06.977Z,14.00
2023-04-18T11:56:36.657Z,14.37
2023-04-18T11:59:10.010Z,14.23
2023-04-18T12:01:37.960Z,14.44
2023-04-18T12:04:09.283Z,13.77
2023-04-18T12:06:47.528Z,13.61
2023-04-18T12:09:16.431Z,13.64
2023-04-18T12:11:45.291Z,14.24
2023-04-18T12:14:21.919Z,14.63
2023-04-18T12:16:50.898Z,14.85
2023-04-18T12:19:32.198Z,15.02
2023-04-18T12:22:18.721Z,14.85
2023-04-18T12:25:11.492Z,14.64
2023-04-18T12:27:50.827Z,14.61
2023-04-18T12:30:22.308Z,14.36
2023-04-18T12:32:55.724Z,14.95
2023-04-18T12:35:35.257Z,14.64
2023-04-18T12:38:12.205Z,15.03
2023-04-18T12:40:47.749Z,15.58
2023-04-18T12:43:29.075Z,15.63
2023-04-18T12:46:24.314Z,15.61
2023-04-18T12:49:13.686Z,15.89
2023-04-18T12:51:43.691Z,15.30
2023-04-18T12:54:12.663Z,15.82
2023-04-18T12:56:42.075Z,15.46
2023-04-18T12:59:15.761Z,15.45
2023-04-18T13:01:45.624Z,15.58
2023-04-18T13:04:15.129Z,15.29
2023-04-18T13:06:47.379Z,15.41
2023-04-18T13:09:16.702Z,15.71
2023-04-18T13:11:45.013Z,15.98
2023-04-18T13:14:13.344Z,16.26
2023-04-18T13:16:43.651Z,16.26
2023-04-18T13:19:12.965Z,15.64
2023-04-18T13:21:41.343Z,15.73
2023-04-18T13:24:10.641Z,15.98
2023-04-18T13:26:39.024Z,16.03
2023-04-18T13:29:06.954Z,15.91
2023-04-18T13:31:36.592Z,16.38
2023-04-18T13:34:04.993Z,15.90
2023-04-18T13:36:34.903Z,15.93
2023-04-18T13:39:05.645Z,16.24
2023-04-18T13:41:35.471Z,15.92
2023-04-18T13:44:03.282Z,16.06
2023-04-18T13:46:32.394Z,15.72
2023-04-18T13:49:04.896Z,16.06
2023-04-18T13:51:33.264Z,15.75
2023-04-18T13:54:02.360Z,15.89
2023-04-18T13:56:30.781Z,15.67
2023-04-18T13:59:00.282Z,15.97
2023-04-18T14:01:28.661Z,15.72
2023-04-18T14:03:57.513Z,15.68
2023-04-18T14:06:28.534Z,16.11
2023-04-18T14:08:59.222Z,15.71
2023-04-18T14:11:27.473Z,15.69
2023-04-18T14:13:55.444Z,15.80
2023-04-18T14:16:28.276Z,15.54
2023-04-18T14:18:56.840Z,15.06
2023-04-18T14:21:25.132Z,15.55
2023-04-18T14:23:56.036Z,16.02
2023-04-18T14:26:24.115Z,16.07
2023-04-18T14:28:52.293Z,15.77
2023-04-18T14:31:21.056Z,15.91
2023-04-18T14:33:50.641Z,16.00
2023-04-18T14:36:18.751Z,15.76
2023-04-18T14:38:48.525Z,16.22
2023-04-18T14:41:16.615Z,15.33
2023-04-18T14:43:45.327Z,15.79
2023-04-18T14:46:14.203Z,15.98
2023-04-18T14:48:42.435Z,15.84
2023-04-18T14:51:12.335Z,16.38
2023-04-18T14:53:40.411Z,16.22
2023-04-18T14:56:08.876Z,16.53
2023-04-18T14:58:37.215Z,16.47
2023-04-18T15:01:05.628Z,16.50
2023-04-18T15:03:34.029Z,16.36
2023-04-18T15:06:02.193Z,16.04
2023-04-18T15:08:32.903Z,16.55
2023-04-18T15:11:01.274Z,16.29
2023-04-18T15:13:29.306Z,15.33
2023-04-18T15:15:57.654Z,15.34
2023-04-18T15:18:25.675Z,15.38
2023-04-18T15:20:53.749Z,15.46
2023-04-18T15:23:21.746Z,15.19
2023-04-18T15:25:51.151Z,15.47
2023-04-18T15:28:20.027Z,14.85
2023-04-18T15:30:47.865Z,14.93
2023-04-18T15:33:17.882Z,14.72
2023-04-18T15:35:45.885Z,15.00
2023-04-18T15:38:13.993Z,14.68
2023-04-18T15:40:43.518Z,14.69
2023-04-18T15:43:14.285Z,14.79
2023-04-18T15:45:44.282Z,14.72
2023-04-18T15:48:13.311Z,14.54
2023-04-18T15:50:41.917Z,14.38
2023-04-18T15:53:10.207Z,14.54
2023-04-18T15:55:38.354Z,14.61
2023-04-18T15:58:06.641Z,14.74
2023-04-18T16:00:35.979Z,14.67
2023-04-18T16:03:04.644Z,14.80
2023-04-18T16:05:32.640Z,14.67
2023-04-18T16:08:02.216Z,14.67
2023-04-18T16:10:30.241Z,14.62
2023-04-18T16:12:59.421Z,14.93
2023-04-18T16:15:27.635Z,14.79
2023-04-18T16:17:57.366Z,14.66
2023-04-18T16:20:27.109Z,14.54
2023-04-18T16:22:55.328Z,14.80
2023-04-18T16:25:23.597Z,14.46
2023-04-18T16:27:51.581Z,14.37
2023-04-18T16:30:19.872Z,14.46
2023-04-18T16:32:47.981Z,14.62
2023-04-18T16:35:17.377Z,14.55
2023-04-18T16:37:45.381Z,14.41
2023-04-18T16:40:14.334Z,14.58
2023-04-18T16:42:42.339Z,14.69
2023-04-18T16:45:10.734Z,14.39
2023-04-18T16:47:38.835Z,14.22
2023-04-18T16:50:08.559Z,14.32
2023-04-18T16:52:38.010Z,14.60
2023-04-18T16:55:07.806Z,14.41
2023-04-18T16:57:35.680Z,14.40
2023-04-18T17:00:04.456Z,14.41
2023-04-18T17:02:33.386Z,14.56
2023-04-18T17:05:01.703Z,14.44
2023-04-18T17:07:30.424Z,14.80
2023-04-18T17:09:59.762Z,14.75
2023-04-18T17:12:27.793Z,14.40
2023-04-18T17:14:55.742Z,14.75
2023-04-18T17:17:24.396Z,14.47
2023-04-18T17:19:52.434Z,14.58
2023-04-18T17:22:20.479Z,14.78
2023-04-18T17:24:51.584Z,14.89
2023-04-18T17:27:21.014Z,14.69
2023-04-18T17:29:49.126Z,14.38
2023-04-18T17:32:19.676Z,14.63
2023-04-18T17:34:47.875Z,14.46
2023-04-18T17:37:17.159Z,14.46
2023-04-18T17:39:45.105Z,14.51
2023-04-18T17:42:13.043Z,14.69
2023-04-18T17:44:42.349Z,14.36
2023-04-18T17:47:10.320Z,14.36
2023-04-18T17:49:38.410Z,14.36
2023-04-18T17:52:07.398Z,14.14
2023-04-18T17:54:35.571Z,14.08
2023-04-18T17:57:07.508Z,13.85
2023-04-18T17:59:51.757Z,13.77
2023-04-18T18:02:23.580Z,13.41
2023-04-18T18:04:53.562Z,13.39
2023-04-18T18:07:21.857Z,13.56
2023-04-18T18:09:50.808Z,13.33
2023-04-18T18:12:19.576Z,13.19
2023-04-18T18:14:48.117Z,13.20
2023-04-18T18:17:16.744Z,13.40
2023-04-18T18:19:46.568Z,13.33
2023-04-18T18:22:14.628Z,13.03
2023-04-18T18:24:42.749Z,13.19
2023-04-18T18:27:10.914Z,12.76
2023-04-18T18:29:39.544Z,12.96
2023-04-18T18:32:08.521Z,12.56
2023-04-18T18:34:38.651Z,12.80
2023-04-18T18:37:18.615Z,12.65
2023-04-18T18:39:53.114Z,12.52
2023-04-18T18:42:42.036Z,12.56
2023-04-18T18:45:11.353Z,12.55
2023-04-18T18:47:40.205Z,12.45
2023-04-18T18:50:09.053Z,12.36
2023-04-18T18:52:40.781Z,12.30
2023-04-18T18:55:09.814Z,12.27
2023-04-18T18:57:38.300Z,12.35
2023-04-18T19:00:09.593Z,12.42
2023-04-18T19:02:38.119Z,12.28
2023-04-18T19:05:07.779Z,12.33
2023-04-18T19:07:42.329Z,12.14
2023-04-18T19:10:11.614Z,12.11
2023-04-18T19:12:40.928Z,12.23
2023-04-18T19:15:10.413Z,12.11
2023-04-18T19:17:38.908Z,12.10
2023-04-18T19:20:09.127Z,12.19
2023-04-18T19:22:42.270Z,12.06
2023-04-18T19:25:11.135Z,12.17
2023-04-18T19:27:39.388Z,12.10
2023-04-18T19:30:09.464Z,12.12
2023-04-18T19:32:37.727Z,12.10
2023-04-18T19:35:07.188Z,12.02
2023-04-18T19:37:43.991Z,11.93
2023-04-18T19:40:14.882Z,12.06
2023-04-18T19:42:43.189Z,12.13
2023-04-18T19:45:15.196Z,12.04
2023-04-18T19:47:44.428Z,12.08
2023-04-18T19:50:12.968Z,11.97
2023-04-18T19:52:42.936Z,11.87
2023-04-18T19:55:11.607Z,12.06
2023-04-18T19:57:41.522Z,11.78
2023-04-18T20:00:12.721Z,12.03
2023-04-18T20:02:41.892Z,12.02
2023-04-18T20:05:11.020Z,11.98
2023-04-18T20:07:39.590Z,11.84
2023-04-18T20:10:10.812Z,11.83
2023-04-18T20:12:39.097Z,11.80
2023-04-18T20:15:08.245Z,11.99
2023-04-18T20:17:36.653Z,11.80
2023-04-18T20:20:08.049Z,11.85
2023-04-18T20:22:37.191Z,11.86
2023-04-18T20:25:06.278Z,11.84
2023-04-18T20:27:35.896Z,11.78
2023-04-18T20:30:04.556Z,11.87
2023-04-18T20:32:33.556Z,11.69
2023-04-18T20:35:02.756Z,11.73
2023-04-18T20:37:31.030Z,11.71
2023-04-18T20:39:59.151Z,11.81
2023-04-18T20:42:27.505Z,11.85
2023-04-18T20:44:58.815Z,12.01
2023-04-18T20:47:27.715Z,11.87
2023-04-18T20:49:56.656Z,11.95
2023-04-18T20:52:24.870Z,12.14
2023-04-18T20:54:52.971Z,12.08
2023-04-18T20:57:21.573Z,11.78
2023-04-18T20:59:49.654Z,12.14
2023-04-18T21:02:19.172Z,12.03
2023-04-18T21:04:47.828Z,11.93
2023-04-18T21:07:16.536Z,12.03
2023-04-18T21:09:45.011Z,12.07
2023-04-18T21:12:13.014Z,12.07
2023-04-18T21:14:41.315Z,12.01
2023-04-18T21:17:10.549Z,11.80
2023-04-18T21:19:42.647Z,12.14
2023-04-18T21:22:11.724Z,11.99
2023-04-18T21:24:40.472Z,12.06
2023-04-18T21:27:09.045Z,12.27
2023-04-18T21:29:37.416Z,12.09
2023-04-18T21:32:06.041Z,11.88
2023-04-18T21:34:34.569Z,11.72
2023-04-18T21:37:04.506Z,11.69
2023-04-18T21:39:32.671Z,11.96
2023-04-18T21:42:03.554Z,11.78
2023-04-18T21:44:32.092Z,11.83
2023-04-18T21:47:00.521Z,11.54
2023-04-18T21:49:29.158Z,11.56
2023-04-18T21:51:57.661Z,11.86
2023-04-18T21:54:27.485Z,12.11
2023-04-18T21:56:55.882Z,11.71
2023-04-18T21:59:24.328Z,11.47
2023-04-18T22:01:52.436Z,11.56
2023-04-18T22:04:26.331Z,11.50
2023-04-18T22:06:55.543Z,11.70
2023-04-18T22:09:23.655Z,11.57
2023-04-18T22:11:56.625Z,11.93
2023-04-18T22:14:26.081Z,11.35
2023-04-18T22:16:54.817Z,11.45
2023-04-18T22:19:24.877Z,11.49
2023-04-18T22:21:53.436Z,11.39
2023-04-18T22:24:22.029Z,11.43
2023-04-18T22:26:50.266Z,11.29
2023-04-18T22:29:20.088Z,11.20
2023-04-18T22:31:48.268Z,11.22
2023-04-18T22:34:16.880Z,11.17
2023-04-18T22:36:45.683Z,11.26
2023-04-18T22:39:14.082Z,11.09
2023-04-18T22:41:44.454Z,11.54
2023-04-18T22:44:16.336Z,11.33
2023-04-18T22:46:48.145Z,11.26
2023-04-18T22:49:18.062Z,11.45
2023-04-18T22:51:46.693Z,11.70
2023-04-18T22:54:15.074Z,11.56
2023-04-18T22:56:43.631Z,11.23
2023-04-18T22:59:11.881Z,11.14
2023-04-18T23:01:40.749Z,11.10
2023-04-18T23:04:10.408Z,11.01
2023-04-18T23:06:38.877Z,10.88
2023-04-18T23:09:08.314Z,11.14
2023-04-18T23:11:36.690Z,11.11
2023-04-18T23:14:04.707Z,11.17
2023-04-18T23:16:33.071Z,11.04
2023-04-18T23:19:01.374Z,10.84
2023-04-18T23:21:33.777Z,11.39
2023-04-18T23:24:02.043Z,11.12
2023-04-18T23:26:30.068Z,11.09
2023-04-18T23:28:58.270Z,11.51
2023-04-18T23:31:26.758Z,11.53
2023-04-18T23:33:55.109Z,11.05
2023-04-18T23:36:23.619Z,11.08
2023-04-18T23:38:53.490Z,11.38
2023-04-18T23:41:22.222Z,11.00
2023-04-18T23:43:50.339Z,10.84
2023-04-18T23:46:19.061Z,10.90
2023-04-18T23:48:47.051Z,11.44
2023-04-18T23:51:15.472Z,11.29
2023-04-18T23:53:43.900Z,11.38
2023-04-18T23:56:13.502Z,11.50
2023-04-18T23:58:42.133Z,11.34
